Time;durP1;ratioP1;P1;durP2;ratioP2;P2;SDS_P1;SDS_P2;PMS_P1;PMS_P2;Temp;Humidity;BMP_temperature;BMP_pressure;BME280_temperature;BME280_humidity;BME280_pressure;Samples;Min_cycle;Max_cycle;Signal;HPM_P1;HPM_P2
2023/08/10 00:00:24;;;;;;;3.50;3.20;;;;;;;13.43;100.00;101301.70;105916;1254;74221;-45
2023/08/10 00:02:52;;;;;;;8.10;2.90;;;;;;;13.39;100.00;101301.39;105841;1256;65472;-45
2023/08/10 00:05:19;;;;;;;3.60;3.10;;;;;;;13.34;100.00;101297.30;105929;1253;72542;-44
2023/08/10 00:07:46;;;;;;;9.80;4.00;;;;;;;13.30;100.00;101295.30;105912;1256;61826;-44
2023/08/10 00:10:12;;;;;;;4.10;3.30;;;;;;;13.27;100.00;101292.77;105950;1253;60524;-45
2023/08/10 00:12:39;;;;;;;4.40;3.50;;;;;;;13.23;100.00;101287.60;105976;1256;73827;-44
2023/08/10 00:15:07;;;;;;;5.90;3.10;;;;;;;13.20;100.00;101285.75;105921;1253;65446;-45
2023/08/10 00:17:34;;;;;;;4.50;3.40;;;;;;;13.17;100.00;101284.94;105883;1253;72716;-44
2023/08/10 00:20:01;;;;;;;4.20;3.30;;;;;;;13.15;100.00;101281.68;105930;1256;61980;-44
2023/08/10 00:22:28;;;;;;;12.30;3.60;;;;;;;13.15;100.00;101286.36;105899;1251;60561;-44
2023/08/10 00:24:55;;;;;;;6.40;3.20;;;;;;;13.15;100.00;101285.48;105876;1256;73838;-44
2023/08/10 00:27:23;;;;;;;3.90;3.30;;;;;;;13.15;100.00;101284.96;105943;1256;64520;-44
2023/08/10 00:29:51;;;;;;;4.40;3.40;;;;;;;13.15;100.00;101283.08;105906;1252;72729;-45
2023/08/10 00:32:19;;;;;;;4.30;2.90;;;;;;;13.14;100.00;101281.86;105718;1253;60679;-44
2023/08/10 00:34:46;;;;;;;4.50;2.90;;;;;;;13.10;100.00;101280.54;105927;1253;61964;-44
2023/08/10 00:37:14;;;;;;;6.90;3.40;;;;;;;13.09;100.00;101275.87;105950;1253;73666;-44
2023/08/10 00:39:41;;;;;;;7.20;3.30;;;;;;;13.06;100.00;101278.00;105886;1256;65534;-46
2023/08/10 00:42:10;;;;;;;3.70;3.20;;;;;;;13.06;100.00;101278.35;105880;1256;72726;-44
2023/08/10 00:44:36;;;;;;;6.80;3.40;;;;;;;13.04;100.00;101274.58;105781;1253;61946;-43
2023/08/10 00:47:04;;;;;;;8.10;3.50;;;;;;;13.05;100.00;101273.69;105737;1253;60505;-45
2023/08/10 00:49:31;;;;;;;3.90;3.60;;;;;;;13.06;100.00;101266.73;105884;1257;73902;-44
2023/08/10 00:51:58;;;;;;;3.70;3.40;;;;;;;13.06;100.00;101265.52;105768;1253;65488;-44
2023/08/10 00:54:26;;;;;;;3.90;3.50;;;;;;;13.06;100.00;101262.41;105904;1253;72594;-44
2023/08/10 00:56:53;;;;;;;6.40;3.80;;;;;;;13.07;100.00;101259.62;105882;1251;60863;-44
2023/08/10 00:59:21;;;;;;;5.00;3.90;;;;;;;13.07;100.00;101259.27;105928;1250;60531;-44
2023/08/10 01:01:47;;;;;;;3.30;3.00;;;;;;;13.08;100.00;101256.65;105984;1251;73697;-43
2023/08/10 01:04:15;;;;;;;4.30;3.70;;;;;;;13.08;100.00;101257.15;105754;1251;65469;-44
2023/08/10 01:06:56;;;;;;;5.60;4.10;;;;;;;13.10;100.00;101257.84;105863;1253;71430;-44
2023/08/10 01:09:28;;;;;;;5.10;4.00;;;;;;;13.10;100.00;101257.32;105902;1256;62044;-44
2023/08/10 01:12:02;;;;;;;13.00;4.20;;;;;;;13.09;100.00;101253.87;105960;1250;60530;-44
2023/08/10 01:14:54;;;;;;;5.00;4.10;;;;;;;13.08;100.00;101249.21;105955;1251;73756;-44
2023/08/10 01:17:27;;;;;;;7.40;4.10;;;;;;;13.05;100.00;101252.90;105879;1257;64029;-44
2023/08/10 01:19:54;;;;;;;3.90;3.70;;;;;;;13.02;100.00;101252.95;105907;1252;71278;-44
2023/08/10 01:22:55;;;;;;;5.90;3.30;;;;;;;13.01;100.00;101249.67;105883;1257;62010;-43
2023/08/10 01:25:24;;;;;;;3.90;3.60;;;;;;;13.00;100.00;101247.08;105910;1251;60430;-44
2023/08/10 01:27:51;;;;;;;4.30;3.90;;;;;;;12.97;100.00;101246.61;105991;1254;73696;-44
2023/08/10 01:30:18;;;;;;;6.00;3.10;;;;;;;12.93;100.00;101243.73;105981;1255;65600;-44
2023/08/10 01:32:45;;;;;;;4.10;3.80;;;;;;;12.89;100.00;101239.98;105888;1257;72597;-44
2023/08/10 01:35:12;;;;;;;4.10;3.80;;;;;;;12.84;100.00;101240.05;105960;1254;61844;-44
2023/08/10 01:37:39;;;;;;;4.70;3.90;;;;;;;12.78;100.00;101238.40;105912;1250;60419;-44
2023/08/10 01:40:07;;;;;;;5.90;3.80;;;;;;;12.74;100.00;101242.28;105946;1251;73714;-44
2023/08/10 01:42:35;;;;;;;7.20;3.60;;;;;;;12.70;100.00;101245.79;105942;1255;64167;-44
2023/08/10 01:45:04;;;;;;;4.10;3.80;;;;;;;12.65;100.00;101250.04;105975;1251;71697;-44
2023/08/10 01:47:39;;;;;;;5.20;4.30;;;;;;;12.61;100.00;101246.79;105888;1256;61748;-44
2023/08/10 01:50:07;;;;;;;4.60;4.20;;;;;;;12.57;100.00;101249.29;106008;1250;60533;-44
2023/08/10 01:52:55;;;;;;;4.40;4.00;;;;;;;12.53;100.00;101245.17;105956;1254;73739;-44
2023/08/10 01:55:22;;;;;;;4.20;3.80;;;;;;;12.50;100.00;101246.26;105943;1254;64158;-44
2023/08/10 01:57:49;;;;;;;4.40;4.00;;;;;;;12.47;100.00;101248.21;105919;1251;72614;-44
2023/08/10 02:00:17;;;;;;;4.40;4.10;;;;;;;12.46;100.00;101250.11;105719;1259;61669;-44
2023/08/10 02:02:43;;;;;;;3.80;3.60;;;;;;;12.44;100.00;101251.52;105920;1250;60828;-44
2023/08/10 02:05:12;;;;;;;5.10;4.20;;;;;;;12.42;100.00;101251.73;105967;1254;73860;-44
2023/08/10 02:07:38;;;;;;;5.00;3.60;;;;;;;12.41;100.00;101248.46;105992;1254;64276;-44
2023/08/10 02:10:06;;;;;;;4.40;4.00;;;;;;;12.38;100.00;101241.41;106010;1250;72579;-43
2023/08/10 02:12:33;;;;;;;4.60;4.20;;;;;;;12.34;100.00;101238.85;105915;1250;62233;-43
2023/08/10 02:15:00;;;;;;;5.40;4.00;;;;;;;12.32;100.00;101244.77;105984;1250;60444;-43
2023/08/10 02:17:35;;;;;;;6.30;3.80;;;;;;;12.31;100.00;101248.59;105923;1254;73693;-43
2023/08/10 02:20:12;;;;;;;5.80;3.70;;;;;;;12.29;100.00;101246.20;105969;1254;65476;-47
2023/08/10 02:22:45;;;;;;;8.60;4.00;;;;;;;12.28;100.00;101243.61;106004;1256;72507;-47
2023/08/10 02:25:12;;;;;;;4.60;4.00;;;;;;;12.27;100.00;101244.66;106020;1250;61913;-44
2023/08/10 02:27:40;;;;;;;9.70;4.20;;;;;;;12.28;100.00;101248.80;105958;1250;61139;-46
2023/08/10 02:30:07;;;;;;;4.20;3.80;;;;;;;12.29;100.00;101250.70;106063;1250;72709;-43
2023/08/10 02:32:34;;;;;;;5.50;3.80;;;;;;;12.30;100.00;101253.45;106002;1255;64313;-44
2023/08/10 02:35:05;;;;;;;4.80;4.10;;;;;;;12.34;100.00;101255.64;105862;1256;72690;-43
2023/08/10 02:37:32;;;;;;;8.00;4.30;;;;;;;12.35;100.00;101260.13;105921;1250;61997;-44
2023/08/10 02:39:59;;;;;;;8.10;4.10;;;;;;;12.34;100.00;101253.04;105951;1254;60418;-43
2023/08/10 02:42:26;;;;;;;4.80;4.30;;;;;;;12.33;100.00;101255.98;105926;1254;72628;-43
2023/08/10 02:44:53;;;;;;;8.80;4.30;;;;;;;12.34;100.00;101255.63;105917;1254;65436;-43
2023/08/10 02:47:20;;;;;;;12.60;4.50;;;;;;;12.34;100.00;101256.34;105902;1254;72653;-43
2023/08/10 02:49:47;;;;;;;4.70;4.30;;;;;;;12.35;100.00;101256.48;105949;1250;61732;-43
2023/08/10 02:52:14;;;;;;;8.70;4.40;;;;;;;12.37;100.00;101258.20;105956;1250;61548;-43
2023/08/10 02:54:41;;;;;;;4.70;4.00;;;;;;;12.41;100.00;101257.29;105920;1256;73790;-43
2023/08/10 02:57:08;;;;;;;4.60;4.20;;;;;;;12.44;100.00;101254.99;105958;1254;65335;-43
2023/08/10 02:59:35;;;;;;;10.50;4.60;;;;;;;12.47;100.00;101256.16;105883;1250;72630;-44
2023/08/10 03:02:03;;;;;;;7.10;4.40;;;;;;;12.51;100.00;101254.04;105827;1254;61744;-43
2023/08/10 03:04:31;;;;;;;4.50;4.20;;;;;;;12.55;100.00;101259.52;105779;1258;60493;-46
2023/08/10 03:06:58;;;;;;;5.10;4.10;;;;;;;12.59;100.00;101257.21;105990;1250;71667;-50
2023/08/10 03:09:25;;;;;;;4.70;4.20;;;;;;;12.63;100.00;101259.92;105853;1250;65456;-43
2023/08/10 03:11:52;;;;;;;4.80;4.30;;;;;;;12.68;100.00;101255.70;106019;1256;72625;-43
2023/08/10 03:14:19;;;;;;;8.20;4.50;;;;;;;12.73;100.00;101253.55;105900;1256;61819;-43
2023/08/10 03:16:46;;;;;;;5.50;4.60;;;;;;;12.81;100.00;101249.28;105820;1253;60459;-44
2023/08/10 03:19:13;;;;;;;6.50;4.10;;;;;;;12.87;100.00;101240.69;105960;1256;73739;-43
2023/08/10 03:21:42;;;;;;;7.40;4.70;;;;;;;12.96;100.00;101237.61;105977;1250;63688;-46
2023/08/10 03:24:09;;;;;;;11.40;4.80;;;;;;;13.03;100.00;101231.44;105894;1250;72496;-44
2023/08/10 03:26:36;;;;;;;8.50;5.60;;;;;;;13.12;100.00;101224.88;105912;1255;62021;-42
2023/08/10 03:29:03;;;;;;;7.90;5.20;;;;;;;13.22;100.00;101229.73;105968;1250;60463;-44
2023/08/10 03:31:31;;;;;;;4.60;4.30;;;;;;;13.31;100.00;101230.46;105862;1257;73950;-45
2023/08/10 03:33:58;;;;;;;8.00;5.40;;;;;;;13.42;100.00;101230.98;105956;1256;65521;-45
2023/08/10 03:36:25;;;;;;;10.50;4.60;;;;;;;13.52;100.00;101237.21;105938;1250;72707;-45
2023/08/10 03:38:52;;;;;;;8.70;4.60;;;;;;;13.61;100.00;101240.54;105952;1254;60717;-45
2023/08/10 03:41:19;;;;;;;6.40;4.10;;;;;;;13.68;100.00;101240.05;105945;1251;60445;-43
2023/08/10 03:43:46;;;;;;;6.80;4.80;;;;;;;13.75;100.00;101236.79;105961;1251;73823;-43
2023/08/10 03:46:13;;;;;;;5.00;4.60;;;;;;;13.84;100.00;101235.77;105994;1255;65475;-43
2023/08/10 03:48:40;;;;;;;5.60;4.70;;;;;;;13.93;100.00;101237.31;105870;1250;72360;-43
2023/08/10 03:51:07;;;;;;;6.30;4.30;;;;;;;14.02;100.00;101238.87;105847;1257;62065;-45
2023/08/10 03:53:33;;;;;;;8.00;5.10;;;;;;;14.16;100.00;101236.85;105933;1251;60642;-45
2023/08/10 03:56:00;;;;;;;7.50;4.40;;;;;;;14.35;100.00;101235.06;105996;1253;73753;-43
2023/08/10 03:58:27;;;;;;;5.30;4.60;;;;;;;14.62;100.00;101234.11;105954;1255;65434;-45
2023/08/10 04:00:54;;;;;;;4.30;3.80;;;;;;;14.97;100.00;101232.45;105916;1250;72657;-44
2023/08/10 04:03:21;;;;;;;4.10;3.70;;;;;;;15.36;100.00;101232.17;105955;1256;60355;-44
2023/08/10 04:05:49;;;;;;;3.90;3.70;;;;;;;15.77;100.00;101233.55;105996;1251;60399;-45
2023/08/10 04:08:16;;;;;;;5.70;3.80;;;;;;;16.15;100.00;101238.04;105948;1251;73721;-45
2023/08/10 04:10:43;;;;;;;4.40;3.90;;;;;;;16.52;100.00;101241.48;105936;1256;65478;-45
2023/08/10 04:13:10;;;;;;;5.90;3.50;;;;;;;16.84;100.00;101244.50;105915;1251;72540;-45
2023/08/10 04:15:37;;;;;;;4.40;4.00;;;;;;;17.14;100.00;101249.48;105941;1256;60488;-45
2023/08/10 04:18:04;;;;;;;6.30;4.00;;;;;;;17.45;100.00;101263.26;105839;1251;60460;-45
2023/08/10 04:20:31;;;;;;;4.30;3.80;;;;;;;17.71;100.00;101289.08;105957;1257;74247;-45
2023/08/10 04:22:59;;;;;;;5.30;3.50;;;;;;;17.95;100.00;101323.33;105910;1256;65442;-44
2023/08/10 04:25:26;;;;;;;3.90;3.50;;;;;;;18.18;100.00;101371.27;106007;1251;72532;-44
2023/08/10 04:27:53;;;;;;;4.30;3.10;;;;;;;18.41;100.00;101464.80;105946;1251;60351;-44
2023/08/10 04:30:22;;;;;;;7.30;3.60;;;;;;;18.62;100.00;101600.02;105969;1250;60447;-44
2023/08/10 04:32:49;;;;;;;6.20;3.40;;;;;;;18.79;100.00;101727.79;105931;1252;73822;-45
2023/08/10 04:35:16;;;;;;;3.70;3.30;;;;;;;18.88;100.00;101711.58;105928;1250;64902;-44
2023/08/10 04:37:44;;;;;;;3.90;3.10;;;;;;;18.95;100.00;101566.04;105955;1251;72499;-44
2023/08/10 04:40:11;;;;;;;3.50;3.00;;;;;;;19.04;100.00;101378.59;105968;1256;60454;-44
2023/08/10 04:42:40;;;;;;;3.60;3.40;;;;;;;19.13;100.00;101194.06;105984;1251;60406;-44
2023/08/10 04:45:10;;;;;;;5.10;3.00;;;;;;;19.21;100.00;101054.45;105954;1251;73805;-44
2023/08/10 04:47:38;;;;;;;3.00;2.80;;;;;;;19.29;100.00;100944.21;105971;1255;65444;-44
2023/08/10 04:50:07;;;;;;;5.20;3.50;;;;;;;19.38;100.00;100887.26;105970;1254;71918;-44
2023/08/10 04:52:33;;;;;;;3.50;2.90;;;;;;;19.45;100.00;100824.14;105919;1256;60443;-44
2023/08/10 04:55:00;;;;;;;7.80;3.30;;;;;;;19.49;100.00;100775.64;105982;1250;60490;-48
2023/08/10 04:57:27;;;;;;;5.80;2.90;;;;;;;19.54;100.00;100724.79;105983;1255;73717;-44
2023/08/10 04:59:54;;;;;;;13.10;3.10;;;;;;;19.55;100.00;100694.13;106040;1256;65421;-44
2023/08/10 05:02:22;;;;;;;7.40;3.00;;;;;;;19.61;100.00;100690.13;105995;1250;72634;-45
2023/08/10 05:04:52;;;;;;;7.20;3.40;;;;;;;19.79;100.00;100694.59;105984;1256;60326;-45
2023/08/10 05:07:19;;;;;;;8.70;3.70;;;;;;;19.95;100.00;100687.98;105956;1250;60473;-45
2023/08/10 05:09:46;;;;;;;9.30;3.60;;;;;;;20.08;100.00;100676.27;106042;1253;73570;-45
2023/08/10 05:12:23;;;;;;;8.10;3.10;;;;;;;20.25;100.00;100675.73;106000;1255;65976;-45
2023/08/10 05:14:50;;;;;;;6.90;3.10;;;;;;;20.44;100.00;100676.55;105945;1251;72713;-45
2023/08/10 05:17:17;;;;;;;4.20;3.00;;;;;;;20.63;100.00;100673.89;105938;1256;60423;-45
2023/08/10 05:19:44;;;;;;;15.40;3.90;;;;;;;20.90;100.00;100672.76;105947;1250;60400;-45
2023/08/10 05:22:11;;;;;;;15.80;3.40;;;;;;;21.18;100.00;100678.48;105894;1251;73860;-46
2023/08/10 05:24:38;;;;;;;9.70;3.20;;;;;;;21.34;100.00;100693.86;105919;1254;65537;-45
2023/08/10 05:27:05;;;;;;;6.40;2.60;;;;;;;21.33;100.00;100748.89;106017;1250;72549;-50
2023/08/10 05:29:33;;;;;;;7.50;2.80;;;;;;;21.19;100.00;100799.17;105959;1254;60444;-45
2023/08/10 05:31:59;;;;;;;4.30;2.60;;;;;;;20.99;100.00;100822.41;105975;1254;60669;-44
2023/08/10 05:34:27;;;;;;;2.90;2.50;;;;;;;20.77;100.00;100837.23;105978;1254;72806;-44
2023/08/10 05:36:53;;;;;;;4.30;2.40;;;;;;;20.61;100.00;100808.84;106078;1255;65564;-46
2023/08/10 05:39:21;;;;;;;5.30;2.40;;;;;;;20.61;100.00;100766.60;105922;1250;72638;-45
2023/08/10 05:41:47;;;;;;;3.00;2.60;;;;;;;20.65;100.00;100759.19;105917;1254;60423;-44
2023/08/10 05:44:14;;;;;;;2.80;2.60;;;;;;;20.72;100.00;100754.63;105921;1250;60447;-44
2023/08/10 05:46:41;;;;;;;2.80;2.60;;;;;;;20.80;100.00;100749.41;105946;1255;73904;-44
2023/08/10 05:49:08;;;;;;;3.30;2.50;;;;;;;20.89;100.00;100743.35;106005;1256;65508;-45
2023/08/10 05:51:35;;;;;;;3.50;2.60;;;;;;;20.93;100.00;100749.08;105976;1251;72679;-45
2023/08/10 05:54:03;;;;;;;3.00;2.30;;;;;;;20.97;100.00;100757.96;105962;1255;60433;-45
2023/08/10 05:56:30;;;;;;;4.50;2.40;;;;;;;21.11;100.00;100766.81;105971;1250;60508;-44
2023/08/10 05:58:57;;;;;;;6.70;2.20;;;;;;;21.22;100.00;100813.71;105977;1251;74055;-44
2023/08/10 06:01:24;;;;;;;2.50;2.30;;;;;;;21.30;100.00;100818.00;105972;1256;65436;-44
2023/08/10 06:03:51;;;;;;;4.00;2.50;;;;;;;21.40;100.00;100826.75;105957;1251;72614;-44
2023/08/10 06:06:18;;;;;;;2.40;2.20;;;;;;;21.49;100.00;100822.33;105957;1256;60351;-45
2023/08/10 06:08:45;;;;;;;2.90;2.70;;;;;;;21.60;100.00;100831.52;105972;1253;60438;-45
2023/08/10 06:11:12;;;;;;;2.20;2.00;;;;;;;21.64;100.00;100847.32;105996;1256;73847;-45
2023/08/10 06:13:41;;;;;;;2.20;2.00;;;;;;;21.68;100.00;100847.44;105953;1251;65451;-45
2023/08/10 06:16:08;;;;;;;2.40;2.20;;;;;;;21.72;100.00;100837.39;106007;1250;72646;-45
2023/08/10 06:18:35;;;;;;;4.80;2.00;;;;;;;21.76;100.00;100836.43;105974;1251;63531;-45
2023/08/10 06:21:03;;;;;;;2.10;1.80;;;;;;;21.81;100.00;100849.63;105927;1250;60530;-45
2023/08/10 06:23:30;;;;;;;2.30;2.10;;;;;;;21.73;100.00;100882.11;105964;1255;73739;-45
2023/08/10 06:25:57;;;;;;;2.70;2.00;;;;;;;21.67;100.00;100876.30;105955;1256;65485;-44
2023/08/10 06:28:25;;;;;;;3.60;2.40;;;;;;;21.74;100.00;100845.54;105977;1256;72624;-45
2023/08/10 06:30:51;;;;;;;2.70;2.10;;;;;;;21.83;100.00;100846.23;105984;1251;61710;-45
2023/08/10 06:33:19;;;;;;;5.00;2.60;;;;;;;21.87;100.00;100861.59;105985;1250;60508;-46
2023/08/10 06:35:46;;;;;;;2.60;2.40;;;;;;;21.89;100.00;100869.42;105982;1251;73818;-45
2023/08/10 06:38:13;;;;;;;2.30;2.10;;;;;;;21.91;100.00;100867.90;105961;1256;65618;-45
2023/08/10 06:40:40;;;;;;;2.50;2.40;;;;;;;22.00;100.00;100858.88;106002;1251;72493;-45
2023/08/10 06:43:07;;;;;;;3.90;2.30;;;;;;;22.15;100.00;100867.68;105964;1256;60421;-45
2023/08/10 06:45:40;;;;;;;6.20;2.10;;;;;;;22.26;100.00;100878.27;105959;1250;61385;-45
2023/08/10 06:48:07;;;;;;;3.20;2.00;;;;;;;22.33;100.00;100891.69;105978;1254;73875;-46
2023/08/10 06:50:34;;;;;;;2.30;2.20;;;;;;;22.37;100.00;100909.05;105862;1257;65512;-45
2023/08/10 06:53:02;;;;;;;2.40;2.10;;;;;;;22.39;100.00;100913.86;105889;1256;72651;-47
2023/08/10 06:55:30;;;;;;;3.10;2.10;;;;;;;22.47;100.00;100910.20;105975;1256;60364;-45
2023/08/10 06:57:57;;;;;;;2.40;2.20;;;;;;;22.57;100.00;100909.42;106032;1251;60531;-46
2023/08/10 07:00:24;;;;;;;2.40;2.20;;;;;;;22.64;100.00;100912.70;106022;1251;73667;-45
2023/08/10 07:02:54;;;;;;;7.70;2.20;;;;;;;22.69;100.00;100919.98;106000;1251;64076;-43
2023/08/10 07:05:23;;;;;;;2.90;2.20;;;;;;;22.74;100.00;100922.46;106000;1255;72608;-45
2023/08/10 07:07:50;;;;;;;2.10;2.00;;;;;;;22.83;100.00;100919.29;105951;1256;60448;-44
2023/08/10 07:10:17;;;;;;;5.20;2.00;;;;;;;22.90;100.00;100926.20;105940;1250;60412;-46
2023/08/10 07:12:44;;;;;;;6.20;2.40;;;;;;;23.01;100.00;100932.38;105968;1255;73721;-44
2023/08/10 07:15:11;;;;;;;2.70;2.20;;;;;;;23.16;100.00;100924.73;105943;1256;65291;-45
2023/08/10 07:17:38;;;;;;;2.30;2.10;;;;;;;23.29;100.00;100928.56;105965;1250;72565;-45
2023/08/10 07:20:06;;;;;;;4.40;3.10;;;;;;;23.35;100.00;100947.54;105994;1254;60370;-44
2023/08/10 07:22:33;;;;;;;3.00;2.40;;;;;;;23.50;100.00;100933.52;105977;1250;60424;-45
2023/08/10 07:25:06;;;;;;;2.60;2.40;;;;;;;23.71;100.00;100939.05;106032;1255;73906;-45
2023/08/10 07:27:34;;;;;;;3.30;2.40;;;;;;;23.89;100.00;100949.84;105990;1254;65767;-45
2023/08/10 07:30:03;;;;;;;4.40;2.70;;;;;;;23.97;100.00;100962.31;105961;1256;72795;-45
2023/08/10 07:32:31;;;;;;;3.50;2.20;;;;;;;23.98;100.00;100983.08;105952;1256;60883;-45
2023/08/10 07:34:58;;;;;;;4.00;2.30;;;;;;;24.01;100.00;100971.96;105951;1255;60473;-46
2023/08/10 07:37:25;;;;;;;5.80;4.10;;;;;;;24.00;99.93;100978.00;105975;1251;73858;-45
2023/08/10 07:39:53;;;;;;;7.10;3.40;;;;;;;23.97;99.89;100984.90;106018;1257;65502;-45
2023/08/10 07:42:20;;;;;;;3.70;3.00;;;;;;;24.00;100.00;100992.47;106029;1251;72668;-46
2023/08/10 07:44:47;;;;;;;5.00;2.90;;;;;;;24.08;100.00;100975.91;105903;1256;60409;-47
2023/08/10 07:47:14;;;;;;;2.50;2.30;;;;;;;24.10;99.80;100985.30;105792;1251;60441;-46
2023/08/10 07:49:41;;;;;;;2.40;2.00;;;;;;;24.25;100.00;100986.76;105997;1255;72963;-48
2023/08/10 07:52:09;;;;;;;4.40;2.00;;;;;;;24.42;98.94;100972.56;105996;1255;65418;-44
2023/08/10 07:54:36;;;;;;;6.90;2.20;;;;;;;24.56;98.36;100981.31;106004;1256;72669;-44
2023/08/10 07:57:03;;;;;;;2.70;2.00;;;;;;;24.77;94.28;100969.81;106020;1256;60337;-46
2023/08/10 07:59:30;;;;;;;4.20;2.00;;;;;;;24.92;88.50;100958.31;105727;1251;345959;-44
2023/08/10 08:05:03;;;;;;;3.30;1.80;;;;;;;25.08;87.08;100974.89;102489;1290;603408;-46
2023/08/10 08:07:30;;;;;;;2.40;1.90;;;;;;;25.26;85.08;100960.20;105052;1266;60492;-46
2023/08/10 08:09:58;;;;;;;4.20;1.80;;;;;;;25.37;80.24;100933.09;105010;1267;60719;-45
2023/08/10 08:12:26;;;;;;;4.30;2.00;;;;;;;25.34;76.57;100926.75;104857;1267;70763;-46
2023/08/10 08:14:53;;;;;;;2.20;1.70;;;;;;;25.24;75.88;100944.03;104854;1270;65464;-45
2023/08/10 08:17:21;;;;;;;2.80;1.70;;;;;;;25.23;76.68;100974.89;104698;1270;246764;-46
2023/08/10 08:19:48;;;;;;;2.30;2.10;;;;;;;25.35;78.36;100984.94;105185;1266;60418;-44
2023/08/10 08:22:15;;;;;;;6.20;1.70;;;;;;;25.50;77.08;100965.70;105204;1264;59993;-45
2023/08/10 08:24:42;;;;;;;6.80;2.60;;;;;;;25.63;76.91;100969.33;105148;1266;72230;-48
2023/08/10 08:27:09;;;;;;;5.80;1.80;;;;;;;25.82;75.22;100943.17;105164;1270;65302;-47
2023/08/10 08:29:37;;;;;;;3.90;1.50;;;;;;;26.01;73.19;100925.48;105144;1269;72651;-46
2023/08/10 08:32:04;;;;;;;5.60;2.10;;;;;;;26.20;71.72;100918.46;105220;1262;60404;-48
2023/08/10 08:34:35;;;;;;;6.60;5.00;;;;;;;26.23;68.73;100878.98;105290;1261;61131;-50
2023/08/10 08:37:02;;;;;;;2.40;1.80;;;;;;;26.10;69.00;100912.09;105271;1263;73053;-47
2023/08/10 08:39:29;;;;;;;3.70;1.60;;;;;;;26.10;67.22;100886.10;105238;1265;65497;-47
2023/08/10 08:41:56;;;;;;;4.80;1.80;;;;;;;26.15;68.42;100937.89;105278;1260;72738;-48
2023/08/10 08:44:23;;;;;;;8.60;1.70;;;;;;;26.38;67.57;100917.25;105174;1267;60324;-46
2023/08/10 08:46:50;;;;;;;4.10;2.00;;;;;;;26.59;68.81;100947.93;105266;1260;60049;-46
2023/08/10 08:49:17;;;;;;;4.50;1.60;;;;;;;26.80;65.86;100875.73;105216;1264;73012;-44
2023/08/10 08:51:44;;;;;;;3.20;1.60;;;;;;;26.72;62.62;100804.32;105223;1265;65371;-45
2023/08/10 08:54:12;;;;;;;2.00;1.20;;;;;;;26.45;63.60;100868.60;105220;1261;72661;-47
2023/08/10 08:56:39;;;;;;;4.10;1.70;;;;;;;26.45;66.13;100951.58;105191;1267;60383;-46
2023/08/10 08:59:06;;;;;;;2.40;1.90;;;;;;;26.68;65.04;100906.02;105182;1263;60202;-46
2023/08/10 09:01:33;;;;;;;4.30;1.80;;;;;;;26.87;64.93;100898.00;105224;1265;73481;-46
2023/08/10 09:04:00;;;;;;;5.00;1.90;;;;;;;27.07;62.27;100808.72;105211;1265;64686;-46
2023/08/10 09:06:27;;;;;;;6.10;2.10;;;;;;;27.15;62.50;100835.69;105213;1260;72585;-46
2023/08/10 09:08:54;;;;;;;5.20;1.50;;;;;;;27.30;60.81;100780.13;105215;1265;60367;-47
2023/08/10 09:11:22;;;;;;;8.90;2.10;;;;;;;27.37;59.17;100730.84;105194;1263;60222;-47
2023/08/10 09:14:06;;;;;;;5.30;2.00;;;;;;;27.31;59.84;100769.41;105209;1266;72991;-46
2023/08/10 09:16:33;;;;;;;3.70;1.70;;;;;;;27.20;60.15;100794.58;105262;1266;65495;-45
2023/08/10 09:19:01;;;;;;;1.50;1.40;;;;;;;27.29;61.01;100824.48;105195;1264;72704;-48
2023/08/10 09:21:31;;;;;;;5.90;1.80;;;;;;;27.40;59.00;100725.24;105024;1266;60218;-46
2023/08/10 09:23:57;;;;;;;5.10;2.00;;;;;;;27.19;57.99;100693.53;105263;1260;60180;-46
2023/08/10 09:26:25;;;;;;;2.30;1.50;;;;;;;26.97;59.76;100808.90;105215;1265;73471;-47
2023/08/10 09:28:52;;;;;;;5.60;3.30;;;;;;;27.02;60.50;100832.20;105232;1265;65231;-44
2023/08/10 09:31:26;;;;;;;5.50;2.00;;;;;;;27.16;60.28;100809.61;105202;1262;72611;-44
2023/08/10 09:33:55;;;;;;;3.30;1.60;;;;;;;27.23;57.68;100678.11;105169;1266;60405;-45
2023/08/10 09:36:26;;;;;;;2.30;1.50;;;;;;;27.27;58.41;100718.77;105223;1261;60219;-46
2023/08/10 09:38:53;;;;;;;5.00;3.60;;;;;;;27.35;58.58;100749.27;105251;1261;73834;-45
2023/08/10 09:41:22;;;;;;;7.20;1.60;;;;;;;27.43;57.25;100683.33;105209;1261;64631;-46
2023/08/10 09:43:49;;;;;;;7.90;1.90;;;;;;;27.56;57.09;100657.08;105243;1261;72660;-46
2023/08/10 09:46:16;;;;;;;1.50;1.40;;;;;;;27.59;56.63;100652.42;105223;1265;60289;-45
2023/08/10 09:48:45;;;;;;;5.30;1.60;;;;;;;27.73;58.11;100750.96;105265;1261;60265;-45
2023/08/10 09:51:12;;;;;;;1.90;1.10;;;;;;;27.96;55.81;100611.09;105198;1260;71694;-46
2023/08/10 09:53:39;;;;;;;2.30;1.40;;;;;;;27.82;55.81;100614.41;105187;1266;65497;-45
2023/08/10 09:56:07;;;;;;;4.10;1.40;;;;;;;27.63;55.93;100652.63;105222;1263;72682;-45
2023/08/10 09:58:40;;;;;;;5.90;1.80;;;;;;;27.55;55.92;100654.02;105208;1266;60402;-46
2023/08/10 10:01:08;;;;;;;4.10;1.20;;;;;;;27.50;56.68;100720.35;105238;1261;60295;-47
2023/08/10 10:03:35;;;;;;;3.80;1.80;;;;;;;27.56;55.97;100676.65;105079;1266;73073;-47
2023/08/10 10:06:03;;;;;;;3.10;1.60;;;;;;;27.68;56.85;100730.67;105237;1262;65497;-48
2023/08/10 10:08:31;;;;;;;8.20;1.50;;;;;;;27.68;56.28;100693.45;105601;1257;72920;-46
2023/08/10 10:10:59;;;;;;;1.50;1.40;;;;;;;27.57;56.17;100699.57;105494;1262;60159;-45
2023/08/10 10:13:26;;;;;;;4.70;1.70;;;;;;;27.47;56.70;100736.02;105650;1260;59638;-45
2023/08/10 10:15:54;;;;;;;8.10;1.80;;;;;;;27.34;56.88;100758.14;105592;1258;73135;-46
2023/08/10 10:18:22;;;;;;;7.20;2.50;;;;;;;27.18;56.66;100743.02;105632;1261;65479;-45
2023/08/10 10:20:49;;;;;;;7.60;1.80;;;;;;;26.98;57.84;100809.19;105641;1256;72493;-45
2023/08/10 10:23:20;;;;;;;2.90;1.50;;;;;;;27.04;59.08;100851.36;105542;1262;60354;-45
2023/08/10 10:25:59;;;;;;;4.70;1.40;;;;;;;27.30;59.29;100828.27;105621;1257;60272;-45
2023/08/10 10:28:28;;;;;;;8.60;1.50;;;;;;;27.72;56.95;100689.54;105686;1261;73083;-45
2023/08/10 10:31:09;;;;;;;5.80;1.20;;;;;;;28.13;55.67;100619.86;105648;1257;64088;-46
2023/08/10 10:33:53;;;;;;;3.00;1.20;;;;;;;28.25;53.69;100497.95;105608;1257;72774;-46
2023/08/10 10:36:21;;;;;;;3.60;1.30;;;;;;;28.08;54.71;100592.05;105641;1261;60325;-46
2023/08/10 10:39:07;;;;;;;3.90;1.60;;;;;;;28.02;56.22;100699.02;105614;1257;60037;-46
2023/08/10 10:41:37;;;;;;;5.20;2.10;;;;;;;28.04;56.40;100709.29;105587;1258;72817;-47
2023/08/10 10:44:05;;;;;;;5.30;1.70;;;;;;;28.02;55.33;100648.08;105648;1261;65524;-46
2023/08/10 10:46:32;;;;;;;9.80;5.20;;;;;;;27.86;54.81;100627.95;105630;1257;72543;-46
2023/08/10 10:49:01;;;;;;;5.60;1.60;;;;;;;27.56;55.89;100707.42;105599;1261;60338;-45
2023/08/10 10:51:28;;;;;;;4.90;1.70;;;;;;;27.49;55.98;100714.59;105475;1263;60060;-46
2023/08/10 10:53:55;;;;;;;4.40;1.60;;;;;;;27.66;55.86;100691.67;105609;1263;73042;-46
2023/08/10 10:56:22;;;;;;;6.20;1.50;;;;;;;27.83;53.60;100540.09;105595;1260;65887;-45
2023/08/10 10:58:49;;;;;;;2.90;1.50;;;;;;;27.69;54.03;100603.70;105598;1257;72635;-46
2023/08/10 11:01:20;;;;;;;2.80;1.90;;;;;;;27.62;55.12;100699.15;105580;1260;60764;-47
2023/08/10 11:03:51;;;;;;;3.30;1.60;;;;;;;27.63;55.35;100701.54;105635;1257;59936;-45
2023/08/10 11:06:21;;;;;;;5.70;1.70;;;;;;;27.65;56.01;100755.05;105606;1262;73021;-46
2023/08/10 11:08:53;;;;;;;3.60;1.50;;;;;;;27.62;56.53;100769.86;105605;1261;65664;-46
2023/08/10 11:11:23;;;;;;;3.90;1.60;;;;;;;27.73;57.13;100778.66;105642;1257;72632;-46
2023/08/10 11:13:51;;;;;;;3.30;1.70;;;;;;;27.86;56.70;100745.04;105611;1256;60212;-45
2023/08/10 11:16:18;;;;;;;3.30;1.50;;;;;;;27.98;55.51;100652.39;105596;1257;60163;-46
2023/08/10 11:18:45;;;;;;;5.70;1.40;;;;;;;28.07;54.62;100613.45;105559;1257;73058;-46